.
WxDataArchive / Data Records for 2010-07-27
2010-07-26 July 2010 2010-07-28

Data Records for Tuesday, 27 July 2010

Time	Temp	Chill	HIndex	Humid	Dewpt	 Wind 	HiWind	WindDir	Rain 	Barom 
-----	----	-----	------	-----	-----	------	------	-------	-----	----- 
00:00	67.6	67.6	67.6	88	63.9	0	0	---	0.00	30.082 
00:05	67.6	67.6	67.6	88	63.9	0	0	---	0.00	30.082 
00:10	67.4	67.4	67.4	89	64.0	0	0	---	0.00	30.082 
00:15	67.3	67.3	67.3	89	63.9	0	0	---	0.00	30.085 
00:20	67.3	67.3	67.3	89	63.9	0	0	---	0.00	30.085 
00:25	67.1	67.1	67.1	89	63.7	0	0	---	0.00	30.085 
00:30	66.9	66.9	66.9	90	63.9	0	0	---	0.00	30.081 
00:35	66.9	66.9	66.9	90	63.9	0	0	---	0.00	30.081 
00:40	66.8	66.8	66.8	90	63.8	0	0	---	0.00	30.081 
00:45	66.8	66.8	66.8	90	63.8	0	0	---	0.00	30.082 
00:50	66.8	66.8	66.8	91	64.1	0	0	---	0.00	30.082 
00:55	66.6	66.6	66.6	91	63.9	0	0	---	0.00	30.082 
01:00	66.6	66.6	66.6	91	63.9	0	0	---	0.00	30.082 
01:05	66.6	66.6	66.6	91	63.9	0	0	---	0.00	30.082 
01:10	66.4	66.4	66.4	92	64.0	0	0	---	0.00	30.082 
01:15	66.4	66.4	66.4	92	64.0	0	0	---	0.00	30.078 
01:20	66.4	66.4	66.4	92	64.0	0	0	---	0.00	30.078 
01:25	66.3	66.3	66.3	92	63.9	0	0	---	0.00	30.078 
01:30	66.3	66.3	66.3	92	63.9	0	0	---	0.00	30.075 
01:35	66.1	66.1	66.1	92	63.7	0	0	---	0.00	30.075 
01:40	66.0	66.0	66.0	92	63.6	0	0	---	0.00	30.075 
01:45	66.0	66.0	66.0	92	63.6	0	0	---	0.00	30.073 
01:50	66.0	66.0	66.0	93	63.9	0	0	---	0.00	30.073 
01:55	65.8	65.8	65.8	93	63.7	0	0	---	0.00	30.073 
02:00	65.8	65.8	65.8	93	63.7	0	0	---	0.00	30.071 
02:05	65.6	65.6	65.6	93	63.5	0	0	---	0.00	30.071 
02:10	65.6	65.6	65.6	93	63.5	0	1	90	0.00	30.071 
02:15	65.6	65.6	65.6	93	63.5	0	0	---	0.00	30.074 
02:20	65.6	65.6	65.6	93	63.5	0	0	---	0.00	30.074 
02:25	65.6	65.6	65.6	93	63.5	0	0	---	0.00	30.074 
02:30	65.5	65.5	65.5	93	63.4	0	0	---	0.00	30.070 
02:35	65.5	65.5	65.5	93	63.4	0	0	---	0.00	30.070 
02:40	65.3	65.3	65.3	93	63.2	0	1	90	0.00	30.070 
02:45	65.2	65.2	65.2	93	63.1	0	0	---	0.00	30.062 
02:50	65.2	65.2	65.2	93	63.1	0	0	---	0.00	30.062 
02:55	65.0	65.0	65.0	93	62.9	0	0	---	0.00	30.062 
03:00	65.0	65.0	65.0	93	62.9	0	0	---	0.00	30.062 
03:05	64.8	64.8	64.8	93	62.7	0	0	---	0.00	30.062 
03:10	64.8	64.8	64.8	93	62.7	0	0	---	0.00	30.062 
03:15	64.7	64.7	64.7	93	62.6	0	0	---	0.00	30.065 
03:20	64.7	64.7	64.7	93	62.6	0	0	---	0.00	30.065 
03:25	64.5	64.5	64.5	93	62.4	0	0	---	0.00	30.065 
03:30	64.3	64.3	64.3	93	62.2	0	0	---	0.00	30.066 
03:35	64.3	64.3	64.3	93	62.2	0	0	---	0.00	30.066 
03:40	64.2	64.2	64.2	93	62.1	0	0	---	0.00	30.066 
03:45	64.2	64.2	64.2	93	62.1	0	0	---	0.00	30.073 
03:50	64.0	64.0	64.0	93	61.9	0	0	---	0.00	30.073 
03:55	64.0	64.0	64.0	94	62.2	0	0	---	0.00	30.073 
04:00	63.9	63.9	63.9	94	62.1	0	0	---	0.00	30.076 
04:05	63.9	63.9	63.9	94	62.1	0	0	---	0.00	30.076 
04:10	63.9	63.9	63.9	94	62.1	0	0	---	0.00	30.076 
04:15	63.7	63.7	63.7	94	61.9	0	0	---	0.00	30.076 
04:20	63.5	63.5	63.5	94	61.7	0	0	---	0.00	30.076 
04:25	63.5	63.5	63.5	94	61.7	0	0	---	0.00	30.076 
04:30	63.4	63.4	63.4	94	61.6	0	0	---	0.00	30.077 
04:35	63.4	63.4	63.4	94	61.6	0	0	---	0.00	30.077 
04:40	63.4	63.4	63.4	94	61.6	0	0	---	0.00	30.077 
04:45	63.2	63.2	63.2	94	61.4	0	0	---	0.00	30.084 
04:50	63.2	63.2	63.2	94	61.4	0	0	---	0.00	30.084 
04:55	63.2	63.2	63.2	94	61.4	0	0	---	0.00	30.084 
05:00	63.1	63.1	63.1	94	61.3	0	0	---	0.00	30.079 
05:05	63.1	63.1	63.1	95	61.6	0	0	---	0.00	30.079 
05:10	63.1	63.1	63.1	95	61.6	0	0	---	0.00	30.079 
05:15	62.9	62.9	62.9	95	61.4	0	0	---	0.00	30.077 
05:20	62.9	62.9	62.9	95	61.4	0	0	---	0.00	30.077 
05:25	62.9	62.9	62.9	95	61.4	0	0	---	0.00	30.077 
05:30	62.7	62.7	62.7	95	61.2	0	0	---	0.00	30.076 
05:35	62.7	62.7	62.7	95	61.2	0	0	---	0.00	30.076 
05:40	62.7	62.7	62.7	95	61.2	0	0	---	0.00	30.076 
05:45	62.6	62.6	62.6	95	61.1	0	0	---	0.00	30.078 
05:50	62.4	62.4	62.4	95	60.9	0	0	---	0.00	30.078 
05:55	62.4	62.4	62.4	95	60.9	0	0	---	0.00	30.078 
06:00	62.4	62.4	62.4	95	60.9	0	0	---	0.00	30.079 
06:05	62.4	62.4	62.4	95	60.9	0	0	---	0.00	30.079 
06:10	62.4	62.4	62.4	95	60.9	0	0	---	0.00	30.079 
06:15	62.4	62.4	62.4	95	60.9	0	0	---	0.00	30.094 
06:20	62.4	62.4	62.4	95	60.9	0	0	---	0.00	30.094 
06:25	62.3	62.3	62.3	95	60.8	0	0	---	0.00	30.094 
06:30	62.3	62.3	62.3	95	60.8	0	0	---	0.00	30.100 
06:35	62.3	62.3	62.3	95	60.8	0	0	---	0.00	30.100 
06:40	62.3	62.3	62.3	96	61.1	0	0	---	0.00	30.100 
06:45	62.4	62.4	62.4	96	61.2	0	0	---	0.00	30.102 
06:50	62.4	62.4	62.4	96	61.2	0	0	---	0.00	30.102 
06:55	62.6	62.6	62.6	96	61.4	0	0	---	0.00	30.102 
07:00	62.6	62.6	62.6	96	61.4	0	0	---	0.00	30.109 
07:05	62.6	62.6	62.6	96	61.4	0	0	---	0.00	30.109 
07:10	62.7	62.7	62.7	96	61.5	0	0	---	0.00	30.109 
07:15	62.9	62.9	62.9	96	61.7	0	0	---	0.00	30.104 
07:20	63.1	63.1	63.1	96	61.9	0	0	---	0.00	30.104 
07:25	63.2	63.2	63.2	96	62.0	0	0	---	0.00	30.104 
07:30	63.5	63.5	63.5	96	62.3	0	0	---	0.00	30.101 
07:35	64.2	64.2	64.2	96	63.0	0	0	---	0.00	30.101 
07:40	64.7	64.7	64.7	96	63.5	0	1	90	0.00	30.101 
07:45	65.3	65.3	65.3	96	64.1	0	1	90	0.00	30.102 
07:50	66.0	66.0	66.0	95	64.5	0	1	90	0.00	30.102 
07:55	66.4	66.4	66.4	93	64.3	0	1	90	0.00	30.102 
08:00	66.9	66.9	66.9	92	64.5	0	3	90	0.00	30.093 
08:05	67.3	67.3	67.3	90	64.3	0	2	90	0.00	30.093 
08:10	67.8	67.8	67.8	89	64.4	0	3	90	0.00	30.093 
08:15	68.4	68.4	68.4	86	64.0	0	2	90	0.00	30.104 
08:20	69.3	69.3	69.3	84	64.2	0	1	90	0.00	30.104 
08:25	70.1	70.1	70.1	82	64.3	0	2	90	0.00	30.104 
08:30	70.9	70.9	70.9	80	64.4	0	2	90	0.00	30.094 
08:35	71.6	71.6	71.6	78	64.4	0	1	90	0.00	30.094 
08:40	72.5	72.5	72.5	77	64.9	0	1	90	0.00	30.094 
08:45	72.8	72.8	72.8	76	64.8	1	3	90	0.00	30.091 
08:50	73.2	73.2	73.2	76	65.2	0	3	90	0.00	30.091 
08:55	73.5	73.5	73.5	75	65.1	0	2	90	0.00	30.091 
09:00	73.9	73.9	73.9	75	65.5	1	3	90	0.00	30.087 
09:05	74.2	74.2	74.2	74	65.4	0	1	90	0.00	30.087 
09:10	75.1	75.1	76.6	72	65.4	0	2	90	0.00	30.087 
09:15	75.8	75.8	77.3	72	66.1	0	3	90	0.00	30.086 
09:20	76.1	76.1	77.8	69	65.2	1	3	90	0.00	30.086 
09:25	76.3	76.3	77.9	71	66.2	0	2	90	0.00	30.086 
09:30	76.5	76.5	78.3	67	64.7	0	2	90	0.00	30.088 
09:35	77.2	77.2	79.0	66	64.9	0	2	90	0.00	30.088 
09:40	77.4	77.4	79.2	65	64.7	1	3	90	0.00	30.088 
09:45	77.6	77.6	79.3	61	63.1	1	3	90	0.00	30.086 
09:50	78.1	78.1	79.8	61	63.5	0	1	90	0.00	30.086 
09:55	78.6	78.6	80.3	60	63.5	0	1	90	0.00	30.086 
10:00	78.8	78.8	80.4	59	63.2	1	3	90	0.00	30.080 
10:05	79.4	79.4	81.1	60	64.3	0	1	90	0.00	30.080 
10:10	79.6	79.6	81.2	58	63.5	1	2	90	0.00	30.080 
10:15	79.6	79.6	81.1	57	63.0	1	2	90	0.00	30.082 
10:20	79.6	79.6	81.2	58	63.5	1	2	90	0.00	30.082 
10:25	80.1	80.1	81.5	56	63.0	1	3	135	0.00	30.082 
10:30	80.7	80.7	82.3	57	64.0	0	2	135	0.00	30.074 
10:35	81.1	81.1	82.5	55	63.4	0	2	135	0.00	30.074 
10:40	81.4	81.4	82.8	55	63.7	1	3	135	0.00	30.074 
10:45	81.4	81.4	82.7	54	63.1	1	3	112	0.00	30.072 
10:50	81.6	81.6	82.9	54	63.3	1	2	158	0.00	30.072 
10:55	81.8	81.8	82.8	52	62.4	0	2	158	0.00	30.072 
11:00	81.8	81.8	82.8	52	62.4	0	1	158	0.00	30.071 
11:05	81.2	81.2	82.3	53	62.4	0	2	135	0.00	30.071 
11:10	81.4	81.4	82.5	53	62.6	0	2	158	0.00	30.071 
11:15	82.0	82.0	82.9	51	62.1	1	3	112	0.00	30.070 
11:20	81.8	81.8	83.0	53	63.0	2	4	90	0.00	30.070 
11:25	81.8	81.8	82.8	52	62.4	1	4	112	0.00	30.070 
11:30	82.2	82.2	83.0	50	61.7	0	2	112	0.00	30.065 
11:35	82.4	82.4	83.5	52	63.0	1	4	112	0.00	30.065 
11:40	82.4	82.4	83.5	52	63.0	1	5	90	0.00	30.065 
11:45	82.6	82.6	83.8	52	63.2	1	4	90	0.00	30.065 
11:50	83.0	83.0	84.1	51	63.0	1	3	90	0.00	30.065 
11:55	82.8	82.8	83.8	51	62.8	2	5	90	0.00	30.065 
12:00	83.0	83.0	83.9	50	62.4	1	4	90	0.00	30.061 
12:05	83.4	83.4	84.0	48	61.6	1	4	112	0.00	30.061 
12:10	83.6	83.6	83.9	46	60.6	1	3	112	0.00	30.061 
12:15	83.8	83.8	84.9	50	63.1	1	3	112	0.00	30.060 
12:20	83.8	83.8	84.9	50	63.1	1	5	90	0.00	30.060 
12:25	83.8	83.8	83.9	45	60.2	1	2	90	0.00	30.060 
12:30	84.1	84.1	84.4	46	61.1	1	3	90	0.00	30.061 
12:35	84.1	84.1	83.9	43	59.2	1	3	112	0.00	30.061 
12:40	84.5	84.5	84.3	43	59.5	1	5	90	0.00	30.061 
12:45	84.3	84.3	84.5	45	60.6	2	6	90	0.00	30.061 
12:50	84.0	84.0	84.3	46	61.0	1	5	90	0.00	30.061 
12:55	83.8	83.8	84.5	48	62.0	1	4	90	0.00	30.061 
13:00	84.1	84.1	84.4	46	61.1	1	3	90	0.00	30.058 
13:05	84.3	84.3	84.5	45	60.6	1	3	90	0.00	30.058 
13:10	84.7	84.7	85.0	45	61.0	1	3	90	0.00	30.058 
13:15	84.9	84.9	85.2	45	61.2	1	2	135	0.00	30.056 
13:20	84.9	84.9	85.4	46	61.8	2	4	112	0.00	30.056 
13:25	84.9	84.9	85.2	45	61.2	1	3	90	0.00	30.056 
13:30	85.3	85.3	85.2	43	60.2	1	5	90	0.00	30.059 
13:35	85.1	85.1	85.2	44	60.7	2	4	90	0.00	30.059 
13:40	85.1	85.1	85.0	43	60.1	1	4	90	0.00	30.059 
13:45	85.5	85.5	85.7	44	61.1	1	2	90	0.00	30.057 
13:50	85.7	85.7	85.1	40	58.6	1	3	90	0.00	30.057 
13:55	85.9	85.9	85.5	41	59.4	0	2	135	0.00	30.057 
14:00	86.1	86.1	85.6	40	58.9	1	3	90	0.00	30.054 
14:05	86.5	86.5	86.0	40	59.3	0	3	90	0.00	30.054 
14:10	87.0	87.0	86.4	39	59.0	0	2	90	0.00	30.054 
14:15	87.2	87.2	87.1	41	60.6	1	3	90	0.00	30.048 
14:20	86.7	86.7	86.3	40	59.5	1	3	112	0.00	30.048 
14:25	87.0	87.0	87.1	42	61.1	0	3	135	0.00	30.048 
14:30	86.7	86.7	87.0	43	61.5	2	4	68	0.00	30.042 
14:35	86.3	86.3	86.5	43	61.1	1	3	90	0.00	30.042 
14:40	86.1	86.1	85.6	40	58.9	1	3	90	0.00	30.042 
14:45	86.3	86.3	86.5	43	61.1	1	3	112	0.00	30.042 
14:50	86.7	86.7	87.0	43	61.5	1	3	112	0.00	30.042 
14:55	87.2	87.2	87.4	42	61.3	0	3	68	0.00	30.042 
15:00	87.2	87.2	86.9	40	59.9	1	3	315	0.00	30.035 
15:05	87.4	87.4	87.4	41	60.8	1	4	45	0.00	30.035 
15:10	87.2	87.2	86.9	40	59.9	1	4	68	0.00	30.035 
15:15	87.4	87.4	87.9	43	62.1	1	3	90	0.00	30.034 
15:20	87.6	87.6	87.6	41	60.9	1	2	90	0.00	30.034 
15:25	87.8	87.8	87.6	40	60.4	1	3	90	0.00	30.034 
15:30	87.4	87.4	87.4	41	60.8	2	4	112	0.00	30.030 
15:35	87.0	87.0	87.1	42	61.1	2	4	112	0.00	30.030 
15:40	87.0	87.0	87.1	42	61.1	1	2	68	0.00	30.030 
15:45	87.4	87.4	87.4	41	60.8	1	3	112	0.00	30.027 
15:50	87.6	87.6	87.1	39	59.5	1	3	112	0.00	30.027 
15:55	87.4	87.4	87.1	40	60.1	2	5	112	0.00	30.027 
16:00	87.2	87.2	86.9	40	59.9	1	4	68	0.00	30.027 
16:05	86.7	86.7	86.5	41	60.1	1	3	68	0.00	30.027 
16:10	86.5	86.5	86.7	43	61.3	2	5	90	0.00	30.027 
16:15	86.1	86.1	85.8	41	59.6	1	3	90	0.00	30.027 
16:20	85.5	85.5	85.5	43	60.4	0	2	270	0.00	30.027 
16:25	85.1	85.1	85.0	43	60.1	0	2	315	0.00	30.027 
16:30	85.1	85.1	85.0	43	60.1	1	3	90	0.00	30.027 
16:35	85.3	85.3	85.5	44	60.9	1	4	90	0.00	30.027 
16:40	85.5	85.5	85.9	45	61.7	1	2	90	0.00	30.027 
16:45	86.1	86.1	86.5	44	61.6	1	5	90	0.00	30.026 
16:50	86.3	86.3	86.5	43	61.1	1	4	90	0.00	30.026 
16:55	86.3	86.3	86.7	44	61.8	3	5	90	0.00	30.026 
17:00	86.3	86.3	86.5	43	61.1	1	6	90	0.00	30.023 
17:05	86.7	86.7	87.0	43	61.5	1	3	90	0.00	30.023 
17:10	86.7	86.7	87.0	43	61.5	1	3	112	0.00	30.023 
17:15	86.5	86.5	87.0	44	62.0	1	3	112	0.00	30.024 
17:20	86.5	86.5	86.7	43	61.3	1	3	112	0.00	30.024 
17:25	87.2	87.2	87.9	44	62.6	0	1	112	0.00	30.024 
17:30	87.2	87.2	87.4	42	61.3	1	6	270	0.00	30.023 
17:35	87.2	87.2	87.4	42	61.3	0	2	270	0.00	30.023 
17:40	87.6	87.6	87.9	42	61.6	0	3	270	0.00	30.023 
17:45	87.6	87.6	87.9	42	61.6	0	3	248	0.00	30.021 
17:50	87.4	87.4	88.5	45	63.4	0	2	270	0.00	30.021 
17:55	87.0	87.0	86.9	41	60.4	1	4	270	0.00	30.021 
18:00	86.5	86.5	86.7	43	61.3	1	3	68	0.00	30.021 
18:05	86.3	86.3	86.5	43	61.1	0	3	225	0.00	30.021 
18:10	85.7	85.7	85.7	43	60.6	1	2	248	0.00	30.021 
18:15	85.3	85.3	85.7	45	61.5	0	2	248	0.00	30.022 
18:20	84.9	84.9	85.2	45	61.2	0	2	248	0.00	30.022 
18:25	84.9	84.9	85.4	46	61.8	1	3	158	0.00	30.022 
18:30	84.7	84.7	85.2	46	61.6	1	3	112	0.00	30.022 
18:35	84.7	84.7	85.2	46	61.6	0	3	112	0.00	30.022 
18:40	84.3	84.3	84.5	45	60.6	1	3	90	0.00	30.022 
18:45	84.0	84.0	84.3	46	61.0	0	2	0	0.00	30.022 
18:50	83.8	83.8	84.5	48	62.0	0	1	0	0.00	30.022 
18:55	83.8	83.8	84.7	49	62.6	0	1	0	0.00	30.022 
19:00	83.8	83.8	85.1	51	63.7	0	1	0	0.00	30.022 
19:05	83.8	83.8	84.7	49	62.6	0	1	0	0.00	30.022 
19:10	84.0	84.0	85.1	50	63.3	0	1	225	0.00	30.022 
19:15	84.0	84.0	85.1	50	63.3	0	2	135	0.00	30.014 
19:20	84.0	84.0	84.9	49	62.8	0	2	135	0.00	30.014 
19:25	84.0	84.0	85.1	50	63.3	0	1	270	0.00	30.014 
19:30	84.0	84.0	84.9	49	62.8	0	2	270	0.00	30.011 
19:35	83.8	83.8	84.7	49	62.6	0	2	270	0.00	30.011 
19:40	83.6	83.6	84.6	50	63.0	1	3	270	0.00	30.011 
19:45	83.4	83.4	84.4	50	62.8	0	1	270	0.00	30.009 
19:50	83.4	83.4	84.4	50	62.8	0	1	270	0.00	30.009 
19:55	83.4	83.4	84.4	50	62.8	0	0	---	0.00	30.009 
20:00	83.2	83.2	84.1	50	62.6	0	1	270	0.00	30.002 
20:05	83.2	83.2	84.1	50	62.6	0	1	270	0.00	30.002 
20:10	83.2	83.2	84.3	51	63.2	0	1	270	0.00	30.002 
20:15	82.8	82.8	84.0	52	63.3	0	0	---	0.00	29.994 
20:20	82.6	82.6	83.6	51	62.6	0	0	---	0.00	29.994 
20:25	82.4	82.4	83.7	53	63.5	0	0	---	0.00	29.994 
20:30	82.0	82.0	83.2	53	63.2	0	0	---	0.00	29.996 
20:35	81.8	81.8	83.2	54	63.5	0	0	---	0.00	29.996 
20:40	81.4	81.4	82.8	55	63.7	0	0	---	0.00	29.996 
20:45	81.2	81.2	82.7	56	64.0	0	0	---	0.00	29.989 
20:50	80.9	80.9	82.4	56	63.7	0	0	---	0.00	29.989 
20:55	80.7	80.7	82.3	57	64.0	0	0	---	0.00	29.989 
21:00	80.3	80.3	81.9	58	64.2	0	0	---	0.00	29.978 
21:05	79.9	79.9	81.6	59	64.3	0	0	---	0.00	29.978 
21:10	79.6	79.6	81.3	60	64.5	0	0	---	0.00	29.978 
21:15	79.2	79.2	80.9	60	64.1	0	0	---	0.00	29.972 
21:20	78.6	78.6	80.3	61	64.0	0	0	---	0.00	29.972 
21:25	78.5	78.5	80.3	62	64.4	0	0	---	0.00	29.972 
21:30	78.1	78.1	79.9	62	64.0	0	0	---	0.00	29.972 
21:35	77.7	77.7	79.5	63	64.1	0	0	---	0.00	29.972 
21:40	77.6	77.6	79.4	64	64.4	0	0	---	0.00	29.972 
21:45	77.4	77.4	79.2	65	64.7	0	0	---	0.00	29.963 
21:50	77.0	77.0	78.8	65	64.3	0	0	---	0.00	29.963 
21:55	76.7	76.7	78.5	66	64.5	0	0	---	0.00	29.963 
22:00	76.5	76.5	78.3	67	64.7	0	0	---	0.00	29.959 
22:05	76.3	76.3	78.0	68	64.9	0	0	---	0.00	29.959 
22:10	76.1	76.1	77.8	68	64.8	0	0	---	0.00	29.959 
22:15	76.1	76.1	77.8	69	65.2	0	0	---	0.00	29.953 
22:20	76.0	76.0	77.7	69	65.1	0	0	---	0.00	29.953 
22:25	76.0	76.0	77.7	70	65.5	0	0	---	0.00	29.953 
22:30	75.8	75.8	77.4	70	65.3	0	0	---	0.00	29.954 
22:35	75.4	75.4	77.0	71	65.3	0	0	---	0.00	29.954 
22:40	75.3	75.3	76.8	72	65.6	0	0	---	0.00	29.954 
22:45	75.1	75.1	76.5	73	65.8	0	0	---	0.00	29.955 
22:50	74.9	74.9	74.9	73	65.6	0	0	---	0.00	29.955 
22:55	74.7	74.7	74.7	74	65.8	0	0	---	0.00	29.955 
23:00	74.6	74.6	74.6	75	66.1	0	0	---	0.00	29.957 
23:05	74.6	74.6	74.6	75	66.1	0	0	---	0.00	29.957 
23:10	74.4	74.4	74.4	76	66.3	0	0	---	0.00	29.957 
23:15	74.2	74.2	74.2	76	66.1	0	0	---	0.00	29.966 
23:20	74.0	74.0	74.0	77	66.3	0	0	---	0.00	29.966 
23:25	73.9	73.9	73.9	77	66.2	0	0	---	0.00	29.966 
23:30	73.7	73.7	73.7	78	66.4	0	0	---	0.00	29.969 
23:35	73.5	73.5	73.5	79	66.6	0	0	---	0.00	29.969 
23:40	73.2	73.2	73.2	79	66.3	0	0	---	0.00	29.969 
23:45	73.0	73.0	73.0	80	66.5	0	0	---	0.00	29.986 
23:50	72.8	72.8	72.8	80	66.3	0	0	---	0.00	29.986 
23:55	72.7	72.7	72.7	81	66.5	0	0	---	0.00	29.986 

CoCoRaHS
IN-AL-39
A2 Web Hosting
Creative Commons License
GoDaddy
search engine by freefind advanced

loaded 2018-11-16 00:05:46 • last modified 2010-11-18 10:43:29
Privacy PolicyDisclaimer
• wx.awcolley.com is powered by PmWiki v.2002016 •
• all content (unless otherwise noted) © 2018 A W Colley